createdAt,value
2023-04-29T00:00:36.573Z,100454.19
2023-04-29T00:03:41.070Z,100445.44
2023-04-29T00:06:44.953Z,100447.19
2023-04-29T00:09:47.911Z,100441.22
2023-04-29T00:12:52.229Z,100448.22
2023-04-29T00:15:55.517Z,100447.47
2023-04-29T00:18:59.697Z,100453.47
2023-04-29T00:22:04.906Z,100443.91
2023-04-29T00:25:08.909Z,100438.56
2023-04-29T00:28:13.788Z,100433.37
2023-04-29T00:31:16.539Z,100433.34
2023-04-29T00:34:20.203Z,100431.59
2023-04-29T00:37:22.740Z,100435.94
2023-04-29T00:40:28.370Z,100436.78
2023-04-29T00:43:31.111Z,100442.91
2023-04-29T00:46:36.733Z,100450.75
2023-04-29T00:49:40.433Z,100439.44
2023-04-29T00:52:45.006Z,100448.13
2023-04-29T00:55:59.770Z,100441.19
2023-04-29T00:59:04.802Z,100447.25
2023-04-29T01:02:07.589Z,100439.31
2023-04-29T01:05:10.814Z,100448.09
2023-04-29T01:08:22.600Z,100443.78
2023-04-29T01:11:34.885Z,100439.28
2023-04-29T01:14:39.493Z,100432.28
2023-04-29T01:18:10.599Z,100427.91
2023-04-29T01:21:13.377Z,100429.59
2023-04-29T01:24:17.188Z,100437.41
2023-04-29T01:27:48.380Z,100445.25
2023-04-29T01:31:09.683Z,100435.75
2023-04-29T01:34:34.947Z,100435.69
2023-04-29T01:37:48.779Z,100438.25
2023-04-29T01:41:13.132Z,100445.97
2023-04-29T01:44:24.410Z,100432.91
2023-04-29T01:47:30.105Z,100434.63
2023-04-29T01:50:33.260Z,100433.72
2023-04-29T01:53:37.494Z,100435.41
2023-04-29T01:56:40.998Z,100424.84
2023-04-29T01:59:43.933Z,100417.06
2023-04-29T02:02:47.492Z,100426.69
2023-04-29T02:05:52.902Z,100435.34
2023-04-29T02:08:55.575Z,100437.03
2023-04-29T02:11:58.494Z,100431.78
2023-04-29T02:15:01.434Z,100431.78
2023-04-29T02:18:05.097Z,100428.19
2023-04-29T02:21:08.312Z,100436.94
2023-04-29T02:24:11.865Z,100436.06
2023-04-29T02:27:14.767Z,100432.47
2023-04-29T02:30:18.219Z,100433.28
2023-04-29T02:33:22.020Z,100435.00
2023-04-29T02:36:25.108Z,100432.34
2023-04-29T02:39:28.924Z,100433.22
2023-04-29T02:42:32.101Z,100435.84
2023-04-29T02:45:37.188Z,100438.38
2023-04-29T02:48:40.312Z,100439.22
2023-04-29T02:51:42.817Z,100430.50
2023-04-29T02:54:45.518Z,100420.78
2023-04-29T02:57:58.827Z,100419.87
2023-04-29T03:01:02.693Z,100417.09
2023-04-29T03:04:06.819Z,100408.22
2023-04-29T03:07:10.012Z,100414.28
2023-04-29T03:10:12.749Z,100422.03
2023-04-29T03:13:15.663Z,100412.34
2023-04-29T03:16:21.861Z,100414.06
2023-04-29T03:19:24.988Z,100410.53
2023-04-29T03:22:28.017Z,100404.44
2023-04-29T03:25:31.576Z,100398.19
2023-04-29T03:28:34.648Z,100387.66
2023-04-29T03:31:44.876Z,100391.25
2023-04-29T03:34:49.549Z,100389.47
2023-04-29T03:37:53.601Z,100405.12
2023-04-29T03:40:57.880Z,100407.84
2023-04-29T03:44:01.087Z,100419.19
2023-04-29T03:47:08.784Z,100421.06
2023-04-29T03:50:12.031Z,100425.50
2023-04-29T03:53:15.742Z,100424.66
2023-04-29T03:56:21.842Z,100428.09
2023-04-29T03:59:24.731Z,100426.28
2023-04-29T04:02:29.771Z,100427.16
2023-04-29T04:05:32.820Z,100432.34
2023-04-29T04:08:36.063Z,100431.47
2023-04-29T04:11:39.097Z,100434.97
2023-04-29T04:14:42.384Z,100434.91
2023-04-29T04:17:45.787Z,100440.19
2023-04-29T04:20:50.461Z,100444.56
2023-04-29T04:23:54.309Z,100447.22
2023-04-29T04:26:57.454Z,100452.50
2023-04-29T04:30:01.564Z,100445.50
2023-04-29T04:33:05.923Z,100442.03
2023-04-29T04:36:13.413Z,100443.81
2023-04-29T04:39:17.827Z,100443.03
2023-04-29T04:42:24.067Z,100442.97
2023-04-29T04:45:30.241Z,100443.78
2023-04-29T04:48:34.042Z,100446.38
2023-04-29T04:51:37.821Z,100449.88
2023-04-29T04:54:41.103Z,100458.63
2023-04-29T04:57:45.685Z,100457.81
2023-04-29T05:00:50.039Z,100453.47
2023-04-29T05:03:54.170Z,100457.72
2023-04-29T05:07:01.272Z,100456.88
2023-04-29T05:10:09.168Z,100445.41
2023-04-29T05:13:16.179Z,100451.78
2023-04-29T05:16:28.296Z,100442.22
2023-04-29T05:19:32.131Z,100443.91
2023-04-29T05:22:36.494Z,100442.12
2023-04-29T05:25:40.139Z,100433.47
2023-04-29T05:28:43.429Z,100439.56
2023-04-29T05:31:48.711Z,100446.34
2023-04-29T05:34:54.084Z,100443.81
2023-04-29T05:38:01.303Z,100447.25
2023-04-29T05:41:14.388Z,100452.66
2023-04-29T05:44:27.063Z,100448.62
2023-04-29T05:47:34.370Z,100449.78
2023-04-29T05:50:39.062Z,100450.06
2023-04-29T05:53:46.896Z,100462.44
2023-04-29T05:56:50.005Z,100459.56
2023-04-29T06:00:04.908Z,100456.06
2023-04-29T06:03:19.009Z,100464.09
2023-04-29T06:06:25.975Z,100467.72
2023-04-29T06:09:30.379Z,100461.94
2023-04-29T06:12:34.950Z,100469.12
2023-04-29T06:15:42.951Z,100469.94
2023-04-29T06:18:46.912Z,100472.00
2023-04-29T06:21:51.564Z,100470.69
2023-04-29T06:25:02.033Z,100472.41
2023-04-29T06:28:08.916Z,100465.34
2023-04-29T06:31:19.087Z,100462.25
2023-04-29T06:34:25.712Z,100459.66
2023-04-29T06:37:38.169Z,100462.50
2023-04-29T06:40:41.933Z,100455.56
2023-04-29T06:43:47.364Z,100449.81
2023-04-29T06:46:53.932Z,100465.47
2023-04-29T06:49:58.452Z,100461.91
2023-04-29T06:53:04.470Z,100457.47
2023-04-29T06:56:11.311Z,100460.47
2023-04-29T06:59:29.809Z,100455.41
2023-04-29T07:02:35.072Z,100453.22
2023-04-29T07:05:40.963Z,100460.34
2023-04-29T07:08:48.214Z,100459.00
2023-04-29T07:11:58.322Z,100461.75
2023-04-29T07:15:08.645Z,100469.19
2023-04-29T07:18:12.392Z,100468.31
2023-04-29T07:21:17.846Z,100469.22
2023-04-29T07:24:28.132Z,100476.22
2023-04-29T07:27:35.577Z,100468.56
2023-04-29T07:30:38.797Z,100467.13
2023-04-29T07:33:49.743Z,100469.81
2023-04-29T07:36:54.722Z,100473.69
2023-04-29T07:40:02.904Z,100471.13
2023-04-29T07:43:07.822Z,100471.53
2023-04-29T07:46:12.901Z,100469.31
2023-04-29T07:49:20.997Z,100469.16
2023-04-29T07:52:25.595Z,100472.03
2023-04-29T07:55:31.999Z,100468.69
2023-04-29T07:58:38.377Z,100464.56
2023-04-29T08:01:42.857Z,100459.25
2023-04-29T08:04:52.546Z,100462.22
2023-04-29T08:07:59.531Z,100451.50
2023-04-29T08:11:09.133Z,100446.81
2023-04-29T08:14:20.781Z,100461.34
2023-04-29T08:17:32.308Z,100467.72
2023-04-29T08:20:44.828Z,100471.50
2023-04-29T08:23:48.160Z,100472.44
2023-04-29T08:26:58.105Z,100473.81
2023-04-29T08:30:03.289Z,100471.19
2023-04-29T08:33:09.012Z,100472.81
2023-04-29T08:36:12.969Z,100473.72
2023-04-29T08:39:17.852Z,100471.22
2023-04-29T08:42:33.979Z,100469.47
2023-04-29T08:45:38.227Z,100470.78
2023-04-29T08:48:45.403Z,100464.47
2023-04-29T08:51:54.922Z,100468.28
2023-04-29T08:55:05.779Z,100466.44
2023-04-29T08:58:09.673Z,100470.38
2023-04-29T09:01:16.918Z,100474.03
2023-04-29T09:04:49.152Z,100463.69
2023-04-29T09:07:56.912Z,100472.47
2023-04-29T09:11:01.971Z,100476.41
2023-04-29T09:14:08.670Z,100468.63
2023-04-29T09:17:13.858Z,100476.28
2023-04-29T09:20:22.273Z,100479.03
2023-04-29T09:23:39.881Z,100477.06
2023-04-29T09:26:43.990Z,100484.28
2023-04-29T09:30:03.327Z,100475.19
2023-04-29T09:33:09.118Z,100469.44
2023-04-29T09:36:18.929Z,100478.28
2023-04-29T09:39:25.023Z,100472.91
2023-04-29T09:42:28.356Z,100469.69
2023-04-29T09:45:43.544Z,100472.94
2023-04-29T09:48:47.518Z,100467.84
2023-04-29T09:52:01.988Z,100468.63
2023-04-29T09:55:09.219Z,100467.84
2023-04-29T09:58:37.535Z,100468.75
2023-04-29T10:01:50.734Z,100455.50
2023-04-29T10:04:58.395Z,100458.25
2023-04-29T10:08:03.109Z,100465.28
2023-04-29T10:11:10.870Z,100452.94
2023-04-29T10:14:18.020Z,100450.31
2023-04-29T10:17:33.314Z,100452.72
2023-04-29T10:20:41.110Z,100452.69
2023-04-29T10:23:45.982Z,100457.13
2023-04-29T10:26:59.477Z,100446.56
2023-04-29T10:30:17.973Z,100449.16
2023-04-29T10:33:23.254Z,100447.56
2023-04-29T10:36:30.239Z,100450.28
2023-04-29T10:39:51.924Z,100445.91
2023-04-29T10:43:04.868Z,100442.31
2023-04-29T10:46:21.314Z,100436.00
2023-04-29T10:49:26.519Z,100433.41
2023-04-29T10:52:31.144Z,100424.72
2023-04-29T10:55:37.901Z,100410.63
2023-04-29T10:58:50.931Z,100411.56
2023-04-29T11:01:54.754Z,100407.13
2023-04-29T11:05:11.509Z,100408.91
2023-04-29T11:08:24.305Z,100408.03
2023-04-29T11:11:43.884Z,100397.41
2023-04-29T11:15:03.513Z,100390.25
2023-04-29T11:18:14.927Z,100382.47
2023-04-29T11:21:24.087Z,100376.28
2023-04-29T11:24:29.162Z,100370.66
2023-04-29T11:27:43.301Z,100363.19
2023-04-29T11:30:57.025Z,100377.66
2023-04-29T11:34:05.878Z,100370.53
2023-04-29T11:37:20.910Z,100356.00
2023-04-29T11:40:28.482Z,100356.34
2023-04-29T11:43:43.686Z,100346.00
2023-04-29T11:46:46.642Z,100349.41
2023-04-29T11:49:51.083Z,100350.56
2023-04-29T11:53:04.806Z,100350.91
2023-04-29T11:56:11.648Z,100353.75
2023-04-29T11:59:19.040Z,100348.38
2023-04-29T12:02:29.200Z,100357.28
2023-04-29T12:05:32.934Z,100359.06
2023-04-29T12:08:37.299Z,100350.31
2023-04-29T12:11:41.875Z,100348.63
2023-04-29T12:14:53.954Z,100357.50
2023-04-29T12:18:02.085Z,100349.13
2023-04-29T12:21:07.681Z,100350.78
2023-04-29T12:24:13.400Z,100347.16
2023-04-29T12:27:24.895Z,100346.81
2023-04-29T12:30:29.526Z,100348.59
2023-04-29T12:33:38.348Z,100349.56
2023-04-29T12:36:50.817Z,100343.22
2023-04-29T12:40:07.824Z,100329.59
2023-04-29T12:43:17.896Z,100329.34
2023-04-29T12:46:21.330Z,100322.56
2023-04-29T12:49:25.641Z,100324.72
2023-04-29T12:52:30.872Z,100314.81
2023-04-29T12:55:36.230Z,100315.94
2023-04-29T12:58:39.176Z,100317.81
2023-04-29T13:01:46.122Z,100313.12
2023-04-29T13:04:50.160Z,100317.53
2023-04-29T13:08:08.812Z,100308.75
2023-04-29T13:11:13.904Z,100305.13
2023-04-29T13:14:18.940Z,100299.28
2023-04-29T13:17:24.919Z,100298.28
2023-04-29T13:20:28.594Z,100291.66
2023-04-29T13:23:35.130Z,100283.94
2023-04-29T13:26:39.551Z,100289.84
2023-04-29T13:29:42.749Z,100292.50
2023-04-29T13:32:53.324Z,100283.50
2023-04-29T13:36:01.069Z,100291.56
2023-04-29T13:39:08.638Z,100276.50
2023-04-29T13:42:15.383Z,100280.41
2023-04-29T13:45:29.096Z,100270.16
2023-04-29T13:49:03.401Z,100268.53
2023-04-29T13:52:58.433Z,100254.19
2023-04-29T13:56:23.493Z,100255.66
2023-04-29T14:02:25.067Z,100258.09
2023-04-29T14:05:31.068Z,100263.47
2023-04-29T14:08:35.434Z,100258.75
2023-04-29T14:11:43.371Z,100263.13
2023-04-29T14:14:47.033Z,100264.72
2023-04-29T14:17:59.986Z,100258.56
2023-04-29T14:21:06.568Z,100267.37
2023-04-29T14:24:17.789Z,100264.75
2023-04-29T14:27:22.704Z,100265.72
2023-04-29T14:30:27.137Z,100264.00
2023-04-29T14:33:31.902Z,100249.84
2023-04-29T14:36:36.165Z,100244.28
2023-04-29T14:39:40.922Z,100245.72
2023-04-29T14:42:44.606Z,100243.34
2023-04-29T14:45:51.232Z,100240.13
2023-04-29T14:48:58.613Z,100247.03
2023-04-29T14:52:10.030Z,100239.22
2023-04-29T14:55:19.525Z,100245.25
2023-04-29T14:58:22.714Z,100247.03
2023-04-29T15:01:30.543Z,100240.97
2023-04-29T15:04:35.551Z,100253.16
2023-04-29T15:07:38.901Z,100257.47
2023-04-29T15:10:47.985Z,100247.00
2023-04-29T15:13:52.195Z,100253.13
2023-04-29T15:17:03.819Z,100246.22
2023-04-29T15:20:09.741Z,100250.75
2023-04-29T15:23:16.899Z,100243.75
2023-04-29T15:26:21.971Z,100256.12
2023-04-29T15:29:34.547Z,100250.91
2023-04-29T15:32:39.832Z,100257.94
2023-04-29T15:35:44.465Z,100251.78
2023-04-29T15:38:54.522Z,100255.31
2023-04-29T15:42:00.146Z,100245.41
2023-04-29T15:45:11.077Z,100238.25
2023-04-29T15:48:14.913Z,100243.41
2023-04-29T15:51:22.543Z,100238.19
2023-04-29T15:54:37.375Z,100227.84
2023-04-29T15:57:44.895Z,100241.19
2023-04-29T16:00:49.057Z,100230.50
2023-04-29T16:03:58.272Z,100240.41
2023-04-29T16:07:09.872Z,100233.31
2023-04-29T16:10:14.156Z,100228.13
2023-04-29T16:13:18.854Z,100226.44
2023-04-29T16:16:26.909Z,100232.66
2023-04-29T16:19:30.887Z,100230.91
2023-04-29T16:22:38.549Z,100235.34
2023-04-29T16:25:42.873Z,100240.63
2023-04-29T16:28:59.457Z,100247.69
2023-04-29T16:32:05.963Z,100240.69
2023-04-29T16:35:10.796Z,100238.94
2023-04-29T16:38:13.667Z,100231.91
2023-04-29T16:41:18.410Z,100240.72
2023-04-29T16:44:23.197Z,100238.09
2023-04-29T16:47:31.114Z,100227.53
2023-04-29T16:50:52.396Z,100231.97
2023-04-29T16:53:58.086Z,100228.47
2023-04-29T16:57:01.562Z,100232.00
2023-04-29T17:00:16.833Z,100226.72
2023-04-29T17:03:21.628Z,100236.41
2023-04-29T17:06:33.710Z,100235.53
2023-04-29T17:09:37.924Z,100235.50
2023-04-29T17:12:42.882Z,100235.47
2023-04-29T17:15:46.039Z,100242.50
2023-04-29T17:18:57.922Z,100242.50
2023-04-29T17:22:05.914Z,100239.84
2023-04-29T17:25:14.867Z,100259.19
2023-04-29T17:28:20.008Z,100258.28
2023-04-29T17:31:45.361Z,100256.50
2023-04-29T17:34:51.477Z,100258.25
2023-04-29T17:38:02.787Z,100254.66
2023-04-29T17:41:07.609Z,100264.22
2023-04-29T17:44:20.560Z,100265.94
2023-04-29T17:47:30.938Z,100269.41
2023-04-29T17:50:43.891Z,100270.22
2023-04-29T17:53:49.032Z,100271.88
2023-04-29T17:56:58.987Z,100271.78
2023-04-29T18:00:11.423Z,100274.41
2023-04-29T18:03:15.913Z,100276.97
2023-04-29T18:06:26.622Z,100278.69
2023-04-29T18:09:38.564Z,100284.75
2023-04-29T18:12:42.405Z,100270.59
2023-04-29T18:15:47.885Z,100287.28
2023-04-29T18:18:56.002Z,100283.84
2023-04-29T18:22:04.600Z,100290.81
2023-04-29T18:25:09.906Z,100296.97
2023-04-29T18:28:24.729Z,100291.59
2023-04-29T18:31:34.799Z,100307.22
2023-04-29T18:34:44.165Z,100313.31
2023-04-29T18:37:55.514Z,100317.56
2023-04-29T18:41:08.962Z,100319.25
2023-04-29T18:44:13.963Z,100317.47
2023-04-29T18:47:24.975Z,100312.97
2023-04-29T18:50:30.848Z,100319.97
2023-04-29T18:53:42.790Z,100328.66
2023-04-29T18:56:48.439Z,100335.63
2023-04-29T18:59:53.924Z,100333.72
2023-04-29T19:03:12.885Z,100329.25
2023-04-29T19:06:23.306Z,100335.37
2023-04-29T19:09:32.924Z,100328.31
2023-04-29T19:12:43.419Z,100341.44
2023-04-29T19:15:50.761Z,100339.69
2023-04-29T19:19:01.205Z,100349.25
2023-04-29T19:22:08.923Z,100344.84
2023-04-29T19:25:13.612Z,100350.09
2023-04-29T19:28:20.212Z,100354.47
2023-04-29T19:31:31.822Z,100357.00
2023-04-29T19:34:36.572Z,100339.28
2023-04-29T19:37:40.878Z,100357.69
2023-04-29T19:40:50.802Z,100362.91
2023-04-29T19:43:58.317Z,100360.28
2023-04-29T19:47:08.189Z,100362.91
2023-04-29T19:50:16.697Z,100362.91
2023-04-29T19:53:20.650Z,100361.06
2023-04-29T19:56:24.267Z,100363.66
2023-04-29T19:59:32.040Z,100361.88
2023-04-29T20:02:45.998Z,100367.00
2023-04-29T20:05:59.308Z,100365.22
2023-04-29T20:09:04.621Z,100366.03
2023-04-29T20:12:12.094Z,100380.03
2023-04-29T20:15:27.474Z,100373.00
2023-04-29T20:18:32.954Z,100380.03
2023-04-29T20:21:39.941Z,100373.06
2023-04-29T20:24:46.977Z,100368.66
2023-04-29T20:27:59.822Z,100369.56
2023-04-29T20:31:09.298Z,100375.63
2023-04-29T20:34:17.923Z,100373.06
2023-04-29T20:37:21.331Z,100373.94
2023-04-29T20:40:26.082Z,100377.41
2023-04-29T20:43:30.893Z,100368.63
2023-04-29T20:46:35.630Z,100373.84
2023-04-29T20:49:39.890Z,100370.22
2023-04-29T20:52:51.824Z,100371.06
2023-04-29T20:56:06.776Z,100378.88
2023-04-29T20:59:10.369Z,100374.47
2023-04-29T21:02:13.677Z,100382.34
2023-04-29T21:05:17.929Z,100382.22
2023-04-29T21:08:22.393Z,100376.94
2023-04-29T21:11:25.902Z,100386.44
2023-04-29T21:14:42.737Z,100377.59
2023-04-29T21:17:46.289Z,100388.09
2023-04-29T21:20:52.185Z,100399.53
2023-04-29T21:24:00.164Z,100405.59
2023-04-29T21:27:05.078Z,100399.47
2023-04-29T21:30:08.648Z,100397.75
2023-04-29T21:33:13.755Z,100398.59
2023-04-29T21:36:17.506Z,100393.28
2023-04-29T21:39:22.905Z,100393.25
2023-04-29T21:42:26.846Z,100392.38
2023-04-29T21:45:34.892Z,100399.41
2023-04-29T21:48:39.026Z,100409.09
2023-04-29T21:51:42.538Z,100406.47
2023-04-29T21:54:45.717Z,100408.31
2023-04-29T21:57:55.564Z,100408.34
2023-04-29T22:01:03.511Z,100405.75
2023-04-29T22:04:07.848Z,100414.50
2023-04-29T22:07:10.438Z,100405.75
2023-04-29T22:10:13.994Z,100405.72
2023-04-29T22:13:17.236Z,100406.50
2023-04-29T22:16:20.992Z,100404.69
2023-04-29T22:19:23.810Z,100403.78
2023-04-29T22:22:27.003Z,100405.50
2023-04-29T22:25:30.082Z,100400.25
2023-04-29T22:28:33.710Z,100395.00
2023-04-29T22:31:36.529Z,100388.84
2023-04-29T22:34:40.301Z,100394.03
2023-04-29T22:37:43.870Z,100399.25
2023-04-29T22:40:57.148Z,100391.41
2023-04-29T22:44:00.195Z,100403.66
2023-04-29T22:47:06.724Z,100410.63
2023-04-29T22:50:10.329Z,100407.09
2023-04-29T22:53:14.436Z,100403.63
2023-04-29T22:56:17.373Z,100401.81
2023-04-29T22:59:21.049Z,100408.00
2023-04-29T23:02:29.129Z,100409.78
2023-04-29T23:05:32.345Z,100410.47
2023-04-29T23:08:36.188Z,100415.81
2023-04-29T23:11:39.811Z,100413.22
2023-04-29T23:14:43.400Z,100407.09
2023-04-29T23:17:46.486Z,100410.44
2023-04-29T23:20:57.044Z,100400.88
2023-04-29T23:24:00.868Z,100409.66
2023-04-29T23:27:04.365Z,100409.66
2023-04-29T23:30:09.108Z,100406.94
2023-04-29T23:33:12.666Z,100403.37
2023-04-29T23:36:15.684Z,100407.78
2023-04-29T23:39:18.596Z,100408.69
2023-04-29T23:42:22.438Z,100399.06
2023-04-29T23:45:25.081Z,100399.87
2023-04-29T23:48:28.286Z,100408.62
2023-04-29T23:51:32.843Z,100406.78
2023-04-29T23:54:36.178Z,100405.88
2023-04-29T23:57:39.020Z,100405.00
